sensor_id;sensor_type;location;lat;lon;timestamp;pressure;altitude;pressure_sealevel;temperature;humidity
2000;BME280;1001;48.87406500;9.59633600;2023-04-28T00:02:13;94950.19;;;12.50;67.82
2000;BME280;1001;48.87406500;9.59633600;2023-04-28T00:04:40;94949.19;;;12.51;69.08
2000;BME280;1001;48.87406500;9.59633600;2023-04-28T00:07:06;94943.66;;;12.52;68.66
2000;BME280;1001;48.87406500;9.59633600;2023-04-28T00:09:33;94939.63;;;12.45;68.85
2000;BME280;1001;48.87406500;9.59633600;2023-04-28T00:12:01;94941.59;;;12.54;68.70
2000;BME280;1001;48.87406500;9.59633600;2023-04-28T00:14:27;94938.25;;;12.59;68.36
2000;BME280;1001;48.87406500;9.59633600;2023-04-28T00:16:54;94931.06;;;12.49;68.65
2000;BME280;1001;48.87406500;9.59633600;2023-04-28T00:19:23;94925.50;;;12.46;69.46
2000;BME280;1001;48.87406500;9.59633600;2023-04-28T00:21:50;94924.22;;;12.48;70.65
2000;BME280;1001;48.87406500;9.59633600;2023-04-28T00:24:16;94922.75;;;12.57;69.87
2000;BME280;1001;48.87406500;9.59633600;2023-04-28T00:26:43;94917.25;;;12.59;69.06
2000;BME280;1001;48.87406500;9.59633600;2023-04-28T00:29:10;94911.47;;;12.57;68.52
2000;BME280;1001;48.87406500;9.59633600;2023-04-28T00:31:37;94911.66;;;12.50;70.06
2000;BME280;1001;48.87406500;9.59633600;2023-04-28T00:34:04;94906.72;;;12.54;70.13
2000;BME280;1001;48.87406500;9.59633600;2023-04-28T00:36:30;94907.56;;;12.59;70.06
2000;BME280;1001;48.87406500;9.59633600;2023-04-28T00:38:57;94912.31;;;12.62;69.69
2000;BME280;1001;48.87406500;9.59633600;2023-04-28T00:41:23;94915.44;;;12.59;69.91
2000;BME280;1001;48.87406500;9.59633600;2023-04-28T00:43:50;94910.25;;;12.64;70.21
2000;BME280;1001;48.87406500;9.59633600;2023-04-28T00:46:20;94916.78;;;12.62;69.45
2000;BME280;1001;48.87406500;9.59633600;2023-04-28T00:48:48;94905.25;;;12.63;69.67
2000;BME280;1001;48.87406500;9.59633600;2023-04-28T00:51:15;94912.19;;;12.74;69.70
2000;BME280;1001;48.87406500;9.59633600;2023-04-28T00:53:43;94909.28;;;12.70;70.12
2000;BME280;1001;48.87406500;9.59633600;2023-04-28T00:56:09;94907.00;;;12.79;69.37
2000;BME280;1001;48.87406500;9.59633600;2023-04-28T00:58:36;94905.06;;;12.69;69.92
2000;BME280;1001;48.87406500;9.59633600;2023-04-28T01:01:04;94905.06;;;12.69;69.92
2000;BME280;1001;48.87406500;9.59633600;2023-04-28T01:03:36;94905.06;;;12.69;69.92
2000;BME280;1001;48.87406500;9.59633600;2023-04-28T01:06:03;94895.66;;;12.73;69.85
2000;BME280;1001;48.87406500;9.59633600;2023-04-28T01:08:31;94891.75;;;12.76;69.96
2000;BME280;1001;48.87406500;9.59633600;2023-04-28T01:10:58;94888.28;;;12.70;69.45
2000;BME280;1001;48.87406500;9.59633600;2023-04-28T01:13:26;94888.28;;;12.70;69.45
2000;BME280;1001;48.87406500;9.59633600;2023-04-28T01:15:52;94877.06;;;12.75;69.15
2000;BME280;1001;48.87406500;9.59633600;2023-04-28T01:18:20;94872.63;;;12.80;70.45
2000;BME280;1001;48.87406500;9.59633600;2023-04-28T01:20:48;94862.38;;;12.79;69.66
2000;BME280;1001;48.87406500;9.59633600;2023-04-28T01:23:16;94862.38;;;12.79;71.00
2000;BME280;1001;48.87406500;9.59633600;2023-04-28T01:25:44;94863.63;;;12.71;70.04
2000;BME280;1001;48.87406500;9.59633600;2023-04-28T01:28:10;63665.75;;;-139.97;100.00
2000;BME280;1001;48.87406500;9.59633600;2023-04-28T01:30:37;63665.75;;;-139.97;100.00
2000;BME280;1001;48.87406500;9.59633600;2023-04-28T01:33:03;63665.75;;;-139.97;100.00
2000;BME280;1001;48.87406500;9.59633600;2023-04-28T01:35:30;63665.75;;;-139.97;100.00
2000;BME280;1001;48.87406500;9.59633600;2023-04-28T01:37:57;63665.75;;;-139.97;100.00
2000;BME280;1001;48.87406500;9.59633600;2023-04-28T01:40:23;63665.75;;;-139.97;100.00
2000;BME280;1001;48.87406500;9.59633600;2023-04-28T01:42:51;63665.75;;;-139.97;100.00
2000;BME280;1001;48.87406500;9.59633600;2023-04-28T01:45:18;63665.75;;;-139.97;100.00
2000;BME280;1001;48.87406500;9.59633600;2023-04-28T01:47:44;63665.75;;;-139.97;100.00
2000;BME280;1001;48.87406500;9.59633600;2023-04-28T01:50:11;63665.75;;;-139.97;100.00
2000;BME280;1001;48.87406500;9.59633600;2023-04-28T01:52:37;63665.75;;;-139.97;100.00
2000;BME280;1001;48.87406500;9.59633600;2023-04-28T01:55:05;63665.75;;;-139.97;100.00
2000;BME280;1001;48.87406500;9.59633600;2023-04-28T01:57:31;63665.75;;;-139.97;100.00
2000;BME280;1001;48.87406500;9.59633600;2023-04-28T02:00:01;63665.75;;;-139.97;100.00
2000;BME280;1001;48.87406500;9.59633600;2023-04-28T02:02:27;63665.75;;;-139.97;100.00
2000;BME280;1001;48.87406500;9.59633600;2023-04-28T02:04:54;63665.75;;;-139.97;100.00
2000;BME280;1001;48.87406500;9.59633600;2023-04-28T02:07:22;63665.75;;;-139.97;100.00
2000;BME280;1001;48.87406500;9.59633600;2023-04-28T02:09:48;63665.75;;;-139.97;100.00
2000;BME280;1001;48.87406500;9.59633600;2023-04-28T02:12:15;63665.75;;;-139.97;100.00
2000;BME280;1001;48.87406500;9.59633600;2023-04-28T02:14:42;63665.75;;;-139.97;100.00
2000;BME280;1001;48.87406500;9.59633600;2023-04-28T02:17:10;63665.75;;;-139.97;100.00
2000;BME280;1001;48.87406500;9.59633600;2023-04-28T02:19:36;63665.75;;;-139.97;100.00
2000;BME280;1001;48.87406500;9.59633600;2023-04-28T02:22:03;63665.75;;;-139.97;100.00
2000;BME280;1001;48.87406500;9.59633600;2023-04-28T02:24:34;63665.75;;;-139.97;100.00
2000;BME280;1001;48.87406500;9.59633600;2023-04-28T02:27:00;63665.75;;;-139.97;100.00
2000;BME280;1001;48.87406500;9.59633600;2023-04-28T02:29:27;63665.75;;;-139.97;100.00
2000;BME280;1001;48.87406500;9.59633600;2023-04-28T02:31:54;63665.75;;;-139.97;100.00
2000;BME280;1001;48.87406500;9.59633600;2023-04-28T02:34:22;63665.75;;;-139.97;100.00
2000;BME280;1001;48.87406500;9.59633600;2023-04-28T02:36:49;63665.75;;;-139.97;100.00
2000;BME280;1001;48.87406500;9.59633600;2023-04-28T02:39:15;63665.75;;;-139.97;100.00
2000;BME280;1001;48.87406500;9.59633600;2023-04-28T02:41:42;63665.75;;;-139.97;100.00
2000;BME280;1001;48.87406500;9.59633600;2023-04-28T02:44:08;63665.75;;;-139.97;100.00
2000;BME280;1001;48.87406500;9.59633600;2023-04-28T02:46:35;63665.75;;;-139.97;100.00
2000;BME280;1001;48.87406500;9.59633600;2023-04-28T02:49:02;63665.75;;;-139.97;100.00
2000;BME280;1001;48.87406500;9.59633600;2023-04-28T02:51:30;63665.75;;;-139.97;100.00
2000;BME280;1001;48.87406500;9.59633600;2023-04-28T02:53:57;63665.75;;;-139.97;100.00
2000;BME280;1001;48.87406500;9.59633600;2023-04-28T02:56:23;63665.75;;;-139.97;100.00
2000;BME280;1001;48.87406500;9.59633600;2023-04-28T02:58:50;63665.75;;;-139.97;100.00
2000;BME280;1001;48.87406500;9.59633600;2023-04-28T03:01:17;63665.75;;;-139.97;100.00
2000;BME280;1001;48.87406500;9.59633600;2023-04-28T03:03:43;63665.75;;;-139.97;100.00
2000;BME280;1001;48.87406500;9.59633600;2023-04-28T03:06:10;63665.75;;;-139.97;100.00
2000;BME280;1001;48.87406500;9.59633600;2023-04-28T03:08:38;63665.75;;;-139.97;100.00
2000;BME280;1001;48.87406500;9.59633600;2023-04-28T03:11:04;63665.75;;;-139.97;100.00
2000;BME280;1001;48.87406500;9.59633600;2023-04-28T03:13:31;63665.75;;;-139.97;100.00
2000;BME280;1001;48.87406500;9.59633600;2023-04-28T03:15:58;63665.75;;;-139.97;100.00
2000;BME280;1001;48.87406500;9.59633600;2023-04-28T03:18:24;63665.75;;;-139.97;100.00
2000;BME280;1001;48.87406500;9.59633600;2023-04-28T03:20:51;63665.75;;;-139.97;100.00
2000;BME280;1001;48.87406500;9.59633600;2023-04-28T03:23:17;63665.75;;;-139.97;100.00
2000;BME280;1001;48.87406500;9.59633600;2023-04-28T03:25:45;63665.75;;;-139.97;100.00
2000;BME280;1001;48.87406500;9.59633600;2023-04-28T03:28:12;63665.75;;;-139.97;100.00
2000;BME280;1001;48.87406500;9.59633600;2023-04-28T03:30:38;63665.75;;;-139.97;100.00
2000;BME280;1001;48.87406500;9.59633600;2023-04-28T03:33:05;63665.75;;;-139.97;100.00
2000;BME280;1001;48.87406500;9.59633600;2023-04-28T03:35:32;63665.75;;;-139.97;100.00
2000;BME280;1001;48.87406500;9.59633600;2023-04-28T03:37:58;63665.75;;;-139.97;100.00
2000;BME280;1001;48.87406500;9.59633600;2023-04-28T03:40:25;63665.75;;;-139.97;100.00
2000;BME280;1001;48.87406500;9.59633600;2023-04-28T03:42:53;63665.75;;;-139.97;100.00
2000;BME280;1001;48.87406500;9.59633600;2023-04-28T03:45:19;63665.75;;;-139.97;100.00
2000;BME280;1001;48.87406500;9.59633600;2023-04-28T03:47:46;63665.75;;;-139.97;100.00
2000;BME280;1001;48.87406500;9.59633600;2023-04-28T03:50:12;63665.75;;;-139.97;100.00
2000;BME280;1001;48.87406500;9.59633600;2023-04-28T03:52:39;63665.75;;;-139.97;100.00
2000;BME280;1001;48.87406500;9.59633600;2023-04-28T03:55:06;63665.75;;;-139.97;100.00
2000;BME280;1001;48.87406500;9.59633600;2023-04-28T03:57:33;63665.75;;;-139.97;100.00
2000;BME280;1001;48.87406500;9.59633600;2023-04-28T04:00:01;63665.75;;;-139.97;100.00
2000;BME280;1001;48.87406500;9.59633600;2023-04-28T04:02:28;63665.75;;;-139.97;100.00
2000;BME280;1001;48.87406500;9.59633600;2023-04-28T04:04:55;63665.75;;;-139.97;100.00
2000;BME280;1001;48.87406500;9.59633600;2023-04-28T04:07:22;63665.75;;;-139.97;100.00
2000;BME280;1001;48.87406500;9.59633600;2023-04-28T04:09:48;63665.75;;;-139.97;100.00
2000;BME280;1001;48.87406500;9.59633600;2023-04-28T04:12:15;63665.75;;;-139.97;100.00
2000;BME280;1001;48.87406500;9.59633600;2023-04-28T04:14:41;63665.75;;;-139.97;100.00
2000;BME280;1001;48.87406500;9.59633600;2023-04-28T04:17:10;63665.75;;;-139.97;100.00
2000;BME280;1001;48.87406500;9.59633600;2023-04-28T04:19:36;63665.75;;;-139.97;100.00
2000;BME280;1001;48.87406500;9.59633600;2023-04-28T04:22:03;63665.75;;;-139.97;100.00
2000;BME280;1001;48.87406500;9.59633600;2023-04-28T04:24:29;63665.75;;;-139.97;100.00
2000;BME280;1001;48.87406500;9.59633600;2023-04-28T04:26:56;63665.75;;;-139.97;100.00
2000;BME280;1001;48.87406500;9.59633600;2023-04-28T04:29:22;63665.75;;;-139.97;100.00
2000;BME280;1001;48.87406500;9.59633600;2023-04-28T04:31:49;63665.75;;;-139.97;100.00
2000;BME280;1001;48.87406500;9.59633600;2023-04-28T04:34:17;63665.75;;;-139.97;100.00
2000;BME280;1001;48.87406500;9.59633600;2023-04-28T04:36:43;63665.75;;;-139.97;100.00
2000;BME280;1001;48.87406500;9.59633600;2023-04-28T04:39:10;63665.75;;;-139.97;100.00
2000;BME280;1001;48.87406500;9.59633600;2023-04-28T04:41:37;63665.75;;;-139.97;100.00
2000;BME280;1001;48.87406500;9.59633600;2023-04-28T04:44:04;63665.75;;;-139.97;100.00
2000;BME280;1001;48.87406500;9.59633600;2023-04-28T04:46:30;63665.75;;;-139.97;100.00
2000;BME280;1001;48.87406500;9.59633600;2023-04-28T04:48:57;63665.75;;;-139.97;100.00
2000;BME280;1001;48.87406500;9.59633600;2023-04-28T04:51:25;63665.75;;;-139.97;100.00
2000;BME280;1001;48.87406500;9.59633600;2023-04-28T04:53:52;63665.75;;;-139.97;100.00
2000;BME280;1001;48.87406500;9.59633600;2023-04-28T04:56:19;63665.75;;;-139.97;100.00
2000;BME280;1001;48.87406500;9.59633600;2023-04-28T04:58:45;63665.75;;;-139.97;100.00
2000;BME280;1001;48.87406500;9.59633600;2023-04-28T05:01:12;63665.75;;;-139.97;100.00
2000;BME280;1001;48.87406500;9.59633600;2023-04-28T05:03:38;63665.75;;;-139.97;100.00
2000;BME280;1001;48.87406500;9.59633600;2023-04-28T05:06:05;63665.75;;;-139.97;100.00
2000;BME280;1001;48.87406500;9.59633600;2023-04-28T05:08:33;63665.75;;;-139.97;100.00
2000;BME280;1001;48.87406500;9.59633600;2023-04-28T05:10:59;63665.75;;;-139.97;100.00
2000;BME280;1001;48.87406500;9.59633600;2023-04-28T05:13:26;63665.75;;;-139.97;100.00
2000;BME280;1001;48.87406500;9.59633600;2023-04-28T05:15:53;63665.75;;;-139.97;100.00
2000;BME280;1001;48.87406500;9.59633600;2023-04-28T05:18:20;63665.75;;;-139.97;100.00
2000;BME280;1001;48.87406500;9.59633600;2023-04-28T05:20:46;63665.75;;;-139.97;100.00
2000;BME280;1001;48.87406500;9.59633600;2023-04-28T05:23:13;63665.75;;;-139.97;100.00
2000;BME280;1001;48.87406500;9.59633600;2023-04-28T05:25:42;63665.75;;;-139.97;100.00
2000;BME280;1001;48.87406500;9.59633600;2023-04-28T05:28:09;63665.75;;;-139.97;100.00
2000;BME280;1001;48.87406500;9.59633600;2023-04-28T05:30:36;63665.75;;;-139.97;100.00
2000;BME280;1001;48.87406500;9.59633600;2023-04-28T05:33:02;63665.75;;;-139.97;100.00
2000;BME280;1001;48.87406500;9.59633600;2023-04-28T05:35:29;63665.75;;;-139.97;100.00
2000;BME280;1001;48.87406500;9.59633600;2023-04-28T05:37:56;63665.75;;;-139.97;100.00
2000;BME280;1001;48.87406500;9.59633600;2023-04-28T05:40:23;63665.75;;;-139.97;100.00
2000;BME280;1001;48.87406500;9.59633600;2023-04-28T05:42:52;63665.75;;;-139.97;100.00
2000;BME280;1001;48.87406500;9.59633600;2023-04-28T05:45:18;63665.75;;;-139.97;100.00
2000;BME280;1001;48.87406500;9.59633600;2023-04-28T05:47:45;63665.75;;;-139.97;100.00
2000;BME280;1001;48.87406500;9.59633600;2023-04-28T05:50:12;63665.75;;;-139.97;100.00
2000;BME280;1001;48.87406500;9.59633600;2023-04-28T05:52:38;63665.75;;;-139.97;100.00
2000;BME280;1001;48.87406500;9.59633600;2023-04-28T05:55:06;63665.75;;;-139.97;100.00
2000;BME280;1001;48.87406500;9.59633600;2023-04-28T05:57:32;63665.75;;;-139.97;100.00
2000;BME280;1001;48.87406500;9.59633600;2023-04-28T06:00:01;63665.75;;;-139.97;100.00
2000;BME280;1001;48.87406500;9.59633600;2023-04-28T06:02:28;63665.75;;;-139.97;100.00
2000;BME280;1001;48.87406500;9.59633600;2023-04-28T06:04:54;63665.75;;;-139.97;100.00
2000;BME280;1001;48.87406500;9.59633600;2023-04-28T06:07:21;63665.75;;;-139.97;100.00
2000;BME280;1001;48.87406500;9.59633600;2023-04-28T06:09:47;63665.75;;;-139.97;100.00
2000;BME280;1001;48.87406500;9.59633600;2023-04-28T06:12:14;63665.75;;;-139.97;100.00
2000;BME280;1001;48.87406500;9.59633600;2023-04-28T06:14:41;63665.75;;;-139.97;100.00
2000;BME280;1001;48.87406500;9.59633600;2023-04-28T06:17:08;63665.75;;;-139.97;100.00
2000;BME280;1001;48.87406500;9.59633600;2023-04-28T06:19:35;63665.75;;;-139.97;100.00
2000;BME280;1001;48.87406500;9.59633600;2023-04-28T06:22:02;63665.75;;;-139.97;100.00
2000;BME280;1001;48.87406500;9.59633600;2023-04-28T06:24:28;63665.75;;;-139.97;100.00
2000;BME280;1001;48.87406500;9.59633600;2023-04-28T06:26:55;63665.75;;;-139.97;100.00
2000;BME280;1001;48.87406500;9.59633600;2023-04-28T06:29:22;63665.75;;;-139.97;100.00
2000;BME280;1001;48.87406500;9.59633600;2023-04-28T06:31:49;63665.75;;;-139.97;100.00
2000;BME280;1001;48.87406500;9.59633600;2023-04-28T06:34:18;63665.75;;;-139.97;100.00
2000;BME280;1001;48.87406500;9.59633600;2023-04-28T06:36:44;63665.75;;;-139.97;100.00
2000;BME280;1001;48.87406500;9.59633600;2023-04-28T06:39:11;63665.75;;;-139.97;100.00
2000;BME280;1001;48.87406500;9.59633600;2023-04-28T06:41:38;63665.75;;;-139.97;100.00
2000;BME280;1001;48.87406500;9.59633600;2023-04-28T06:44:05;63665.75;;;-139.97;100.00
2000;BME280;1001;48.87406500;9.59633600;2023-04-28T06:46:31;63665.75;;;-139.97;100.00
2000;BME280;1001;48.87406500;9.59633600;2023-04-28T06:48:58;63665.75;;;-139.97;100.00
2000;BME280;1001;48.87406500;9.59633600;2023-04-28T06:51:26;63665.75;;;-139.97;100.00
2000;BME280;1001;48.87406500;9.59633600;2023-04-28T06:53:53;63665.75;;;-139.97;100.00
2000;BME280;1001;48.87406500;9.59633600;2023-04-28T06:56:19;63665.75;;;-139.97;100.00
2000;BME280;1001;48.87406500;9.59633600;2023-04-28T06:58:46;63665.75;;;-139.97;100.00
2000;BME280;1001;48.87406500;9.59633600;2023-04-28T07:01:13;63665.75;;;-139.97;100.00
2000;BME280;1001;48.87406500;9.59633600;2023-04-28T07:03:39;63665.75;;;-139.97;100.00
2000;BME280;1001;48.87406500;9.59633600;2023-04-28T07:06:06;63665.75;;;-139.97;100.00
2000;BME280;1001;48.87406500;9.59633600;2023-04-28T07:08:34;63665.75;;;-139.97;100.00
2000;BME280;1001;48.87406500;9.59633600;2023-04-28T07:11:01;63665.75;;;-139.97;100.00
2000;BME280;1001;48.87406500;9.59633600;2023-04-28T07:13:28;63665.75;;;-139.97;100.00
2000;BME280;1001;48.87406500;9.59633600;2023-04-28T07:15:55;63665.75;;;-139.97;100.00
2000;BME280;1001;48.87406500;9.59633600;2023-04-28T07:18:22;63665.75;;;-139.97;100.00
2000;BME280;1001;48.87406500;9.59633600;2023-04-28T07:20:48;63665.75;;;-139.97;100.00
2000;BME280;1001;48.87406500;9.59633600;2023-04-28T07:23:15;63665.75;;;-139.97;100.00
2000;BME280;1001;48.87406500;9.59633600;2023-04-28T07:25:43;63665.75;;;-139.97;100.00
2000;BME280;1001;48.87406500;9.59633600;2023-04-28T07:28:10;63665.75;;;-139.97;100.00
2000;BME280;1001;48.87406500;9.59633600;2023-04-28T07:30:36;63665.75;;;-139.97;100.00
2000;BME280;1001;48.87406500;9.59633600;2023-04-28T07:33:03;63665.75;;;-139.97;100.00
2000;BME280;1001;48.87406500;9.59633600;2023-04-28T07:35:30;63665.75;;;-139.97;100.00
2000;BME280;1001;48.87406500;9.59633600;2023-04-28T07:37:56;63665.75;;;-139.97;100.00
2000;BME280;1001;48.87406500;9.59633600;2023-04-28T07:40:23;63665.75;;;-139.97;100.00
2000;BME280;1001;48.87406500;9.59633600;2023-04-28T07:42:51;63665.75;;;-139.97;100.00
2000;BME280;1001;48.87406500;9.59633600;2023-04-28T07:45:18;63665.75;;;-139.97;100.00
2000;BME280;1001;48.87406500;9.59633600;2023-04-28T07:47:45;63665.75;;;-139.97;100.00
2000;BME280;1001;48.87406500;9.59633600;2023-04-28T07:50:12;63665.75;;;-139.97;100.00
2000;BME280;1001;48.87406500;9.59633600;2023-04-28T07:52:38;63665.75;;;-139.97;100.00
2000;BME280;1001;48.87406500;9.59633600;2023-04-28T07:55:05;63665.75;;;-139.97;100.00
2000;BME280;1001;48.87406500;9.59633600;2023-04-28T07:57:32;63665.75;;;-139.97;100.00
2000;BME280;1001;48.87406500;9.59633600;2023-04-28T08:00:00;63665.75;;;-139.97;100.00
2000;BME280;1001;48.87406500;9.59633600;2023-04-28T08:02:26;63665.75;;;-139.97;100.00
2000;BME280;1001;48.87406500;9.59633600;2023-04-28T08:04:53;63665.75;;;-139.97;100.00
2000;BME280;1001;48.87406500;9.59633600;2023-04-28T08:07:20;63665.75;;;-139.97;100.00
2000;BME280;1001;48.87406500;9.59633600;2023-04-28T08:09:46;63665.75;;;-139.97;100.00
2000;BME280;1001;48.87406500;9.59633600;2023-04-28T08:12:13;63665.75;;;-139.97;100.00
2000;BME280;1001;48.87406500;9.59633600;2023-04-28T08:14:40;63665.75;;;-139.97;100.00
2000;BME280;1001;48.87406500;9.59633600;2023-04-28T08:17:08;63665.75;;;-139.97;100.00
2000;BME280;1001;48.87406500;9.59633600;2023-04-28T08:19:35;63665.75;;;-139.97;100.00
2000;BME280;1001;48.87406500;9.59633600;2023-04-28T08:22:01;63665.75;;;-139.97;100.00
2000;BME280;1001;48.87406500;9.59633600;2023-04-28T08:24:30;63665.75;;;-139.97;100.00
2000;BME280;1001;48.87406500;9.59633600;2023-04-28T08:26:59;63665.75;;;-139.97;100.00
2000;BME280;1001;48.87406500;9.59633600;2023-04-28T08:29:27;63665.75;;;-139.97;100.00
2000;BME280;1001;48.87406500;9.59633600;2023-04-28T08:31:53;63665.75;;;-139.97;100.00
2000;BME280;1001;48.87406500;9.59633600;2023-04-28T08:34:21;63665.75;;;-139.97;100.00
2000;BME280;1001;48.87406500;9.59633600;2023-04-28T08:36:48;63665.75;;;-139.97;100.00
2000;BME280;1001;48.87406500;9.59633600;2023-04-28T08:39:15;63665.75;;;-139.97;100.00
2000;BME280;1001;48.87406500;9.59633600;2023-04-28T08:41:42;63665.75;;;-139.97;100.00
2000;BME280;1001;48.87406500;9.59633600;2023-04-28T08:44:09;63665.75;;;-139.97;100.00
2000;BME280;1001;48.87406500;9.59633600;2023-04-28T08:46:39;63665.75;;;-139.97;100.00
2000;BME280;1001;48.87406500;9.59633600;2023-04-28T08:49:11;63665.75;;;-139.97;100.00
2000;BME280;1001;48.87406500;9.59633600;2023-04-28T08:51:44;63665.75;;;-139.97;100.00
2000;BME280;1001;48.87406500;9.59633600;2023-04-28T08:54:13;63665.75;;;-139.97;100.00
2000;BME280;1001;48.87406500;9.59633600;2023-04-28T08:56:41;63665.75;;;-139.97;100.00
2000;BME280;1001;48.87406500;9.59633600;2023-04-28T08:59:10;63665.75;;;-139.97;100.00
2000;BME280;1001;48.87406500;9.59633600;2023-04-28T09:01:37;63665.75;;;-139.97;100.00
2000;BME280;1001;48.87406500;9.59633600;2023-04-28T09:04:04;63665.75;;;-139.97;100.00
2000;BME280;1001;48.87406500;9.59633600;2023-04-28T09:06:32;63665.75;;;-139.97;100.00
2000;BME280;1001;48.87406500;9.59633600;2023-04-28T09:09:19;63665.75;;;-139.97;100.00
2000;BME280;1001;48.87406500;9.59633600;2023-04-28T09:11:50;63665.75;;;-139.97;100.00
2000;BME280;1001;48.87406500;9.59633600;2023-04-28T09:14:17;63665.75;;;-139.97;100.00
2000;BME280;1001;48.87406500;9.59633600;2023-04-28T09:16:44;63665.75;;;-139.97;100.00
2000;BME280;1001;48.87406500;9.59633600;2023-04-28T09:19:10;63665.75;;;-139.97;100.00
2000;BME280;1001;48.87406500;9.59633600;2023-04-28T09:21:45;63665.75;;;-139.97;100.00
2000;BME280;1001;48.87406500;9.59633600;2023-04-28T09:24:26;63665.75;;;-139.97;100.00
2000;BME280;1001;48.87406500;9.59633600;2023-04-28T09:26:53;63665.75;;;-139.97;100.00
2000;BME280;1001;48.87406500;9.59633600;2023-04-28T09:29:19;63665.75;;;-139.97;100.00
2000;BME280;1001;48.87406500;9.59633600;2023-04-28T09:31:46;63665.75;;;-139.97;100.00
2000;BME280;1001;48.87406500;9.59633600;2023-04-28T09:34:13;63665.75;;;-139.97;100.00
2000;BME280;1001;48.87406500;9.59633600;2023-04-28T09:36:39;63665.75;;;-139.97;100.00
2000;BME280;1001;48.87406500;9.59633600;2023-04-28T09:39:06;63665.75;;;-139.97;100.00
2000;BME280;1001;48.87406500;9.59633600;2023-04-28T09:41:38;63665.75;;;-139.97;100.00
2000;BME280;1001;48.87406500;9.59633600;2023-04-28T09:44:09;63665.75;;;-139.97;100.00
2000;BME280;1001;48.87406500;9.59633600;2023-04-28T09:46:36;63665.75;;;-139.97;100.00
2000;BME280;1001;48.87406500;9.59633600;2023-04-28T09:49:03;63665.75;;;-139.97;100.00
2000;BME280;1001;48.87406500;9.59633600;2023-04-28T09:51:30;63665.75;;;-139.97;100.00
2000;BME280;1001;48.87406500;9.59633600;2023-04-28T09:53:59;63665.75;;;-139.97;100.00
2000;BME280;1001;48.87406500;9.59633600;2023-04-28T09:56:27;63665.75;;;-139.97;100.00
2000;BME280;1001;48.87406500;9.59633600;2023-04-28T09:58:56;63665.75;;;-139.97;100.00
2000;BME280;1001;48.87406500;9.59633600;2023-04-28T10:01:24;63665.75;;;-139.97;100.00
2000;BME280;1001;48.87406500;9.59633600;2023-04-28T10:03:52;63665.75;;;-139.97;100.00
2000;BME280;1001;48.87406500;9.59633600;2023-04-28T10:06:19;63665.75;;;-139.97;100.00
2000;BME280;1001;48.87406500;9.59633600;2023-04-28T10:08:46;63665.75;;;-139.97;100.00
2000;BME280;1001;48.87406500;9.59633600;2023-04-28T10:11:14;63665.75;;;-139.97;100.00
2000;BME280;1001;48.87406500;9.59633600;2023-04-28T10:13:41;63665.75;;;-139.97;100.00
2000;BME280;1001;48.87406500;9.59633600;2023-04-28T10:16:10;63665.75;;;-139.97;100.00
2000;BME280;1001;48.87406500;9.59633600;2023-04-28T10:18:39;63665.75;;;-139.97;100.00
2000;BME280;1001;48.87406500;9.59633600;2023-04-28T10:21:06;63665.75;;;-139.97;100.00
2000;BME280;1001;48.87406500;9.59633600;2023-04-28T10:23:58;63665.75;;;-139.97;100.00
2000;BME280;1001;48.87406500;9.59633600;2023-04-28T10:26:49;63665.75;;;-139.97;100.00
2000;BME280;1001;48.87406500;9.59633600;2023-04-28T10:29:22;63665.75;;;-139.97;100.00
2000;BME280;1001;48.87406500;9.59633600;2023-04-28T10:32:16;63665.75;;;-139.97;100.00
2000;BME280;1001;48.87406500;9.59633600;2023-04-28T10:34:43;63665.75;;;-139.97;100.00
2000;BME280;1001;48.87406500;9.59633600;2023-04-28T10:37:10;63665.75;;;-139.97;100.00
2000;BME280;1001;48.87406500;9.59633600;2023-04-28T10:39:39;63665.75;;;-139.97;100.00
2000;BME280;1001;48.87406500;9.59633600;2023-04-28T10:45:12;63665.75;;;-139.97;100.00
2000;BME280;1001;48.87406500;9.59633600;2023-04-28T10:48:01;63665.75;;;-139.97;100.00
2000;BME280;1001;48.87406500;9.59633600;2023-04-28T10:50:31;63665.75;;;-139.97;100.00
2000;BME280;1001;48.87406500;9.59633600;2023-04-28T10:52:57;63665.75;;;-139.97;100.00
2000;BME280;1001;48.87406500;9.59633600;2023-04-28T10:55:29;63665.75;;;-139.97;100.00
2000;BME280;1001;48.87406500;9.59633600;2023-04-28T10:58:30;63665.75;;;-139.97;100.00
2000;BME280;1001;48.87406500;9.59633600;2023-04-28T11:01:25;63665.75;;;-139.97;100.00
2000;BME280;1001;48.87406500;9.59633600;2023-04-28T11:03:54;63665.75;;;-139.97;100.00
2000;BME280;1001;48.87406500;9.59633600;2023-04-28T11:06:28;63665.75;;;-139.97;100.00
2000;BME280;1001;48.87406500;9.59633600;2023-04-28T11:08:57;63665.75;;;-139.97;100.00
2000;BME280;1001;48.87406500;9.59633600;2023-04-28T11:11:25;63665.75;;;-139.97;100.00
2000;BME280;1001;48.87406500;9.59633600;2023-04-28T11:13:53;63665.75;;;-139.97;100.00
2000;BME280;1001;48.87406500;9.59633600;2023-04-28T11:16:21;63665.75;;;-139.97;100.00
2000;BME280;1001;48.87406500;9.59633600;2023-04-28T11:18:51;63665.75;;;-139.97;100.00
2000;BME280;1001;48.87406500;9.59633600;2023-04-28T11:21:20;63665.75;;;-139.97;100.00
2000;BME280;1001;48.87406500;9.59633600;2023-04-28T11:23:47;63665.75;;;-139.97;100.00
2000;BME280;1001;48.87406500;9.59633600;2023-04-28T11:26:14;63665.75;;;-139.97;100.00
2000;BME280;1001;48.87406500;9.59633600;2023-04-28T11:28:49;63665.75;;;-139.97;100.00
2000;BME280;1001;48.87406500;9.59633600;2023-04-28T11:31:18;63665.75;;;-139.97;100.00